createdAt,value
2019-01-23T00:03:52.074Z,55.37
2019-01-23T00:07:56.774Z,55.29
2019-01-23T00:12:01.467Z,55.25
2019-01-23T00:16:06.170Z,55.35
2019-01-23T00:20:10.868Z,55.19
2019-01-23T00:24:15.569Z,55.08
2019-01-23T00:28:21.237Z,55.19
2019-01-23T00:32:25.922Z,55.27
2019-01-23T00:36:30.616Z,55.37
2019-01-23T00:40:35.312Z,55.36
2019-01-23T00:44:40.014Z,55.42
2019-01-23T00:48:44.718Z,55.65
2019-01-23T00:52:49.403Z,56.91
2019-01-23T00:56:55.169Z,56.08
2019-01-23T01:00:59.866Z,55.70
2019-01-23T01:05:05.538Z,55.59
2019-01-23T01:09:10.245Z,55.71
2019-01-23T01:13:14.923Z,55.84
2019-01-23T01:17:19.625Z,55.72
2019-01-23T01:21:24.321Z,55.51
2019-01-23T01:25:29.015Z,55.45
2019-01-23T01:29:33.714Z,55.30
2019-01-23T01:33:38.402Z,55.18
2019-01-23T01:37:43.100Z,55.13
2019-01-23T01:41:47.796Z,55.18
2019-01-23T01:45:52.494Z,55.23
2019-01-23T01:49:57.197Z,55.20
2019-01-23T01:54:01.888Z,55.05
2019-01-23T01:58:10.243Z,55.17
2019-01-23T02:02:12.980Z,55.25
2019-01-23T02:06:17.682Z,55.21
2019-01-23T02:10:22.380Z,54.89
2019-01-23T02:14:27.070Z,54.67
2019-01-23T02:18:31.769Z,54.79
2019-01-23T02:22:36.475Z,54.79
2019-01-23T02:26:41.165Z,54.88
2019-01-23T02:30:45.848Z,55.09
2019-01-23T02:34:50.552Z,54.78
2019-01-23T02:38:55.251Z,54.94
2019-01-23T02:42:59.945Z,54.93
2019-01-23T02:47:04.663Z,54.98
2019-01-23T02:51:09.345Z,55.01
2019-01-23T02:55:14.043Z,55.04
2019-01-23T02:59:18.745Z,55.06
2019-01-23T03:03:23.438Z,55.01
2019-01-23T03:07:28.121Z,54.89
2019-01-23T03:11:32.819Z,54.97
2019-01-23T03:15:37.514Z,54.85
2019-01-23T03:19:42.283Z,54.78
2019-01-23T03:23:47.053Z,54.81
2019-01-23T03:27:51.745Z,54.66
2019-01-23T03:31:56.439Z,54.70
2019-01-23T03:36:01.142Z,54.71
2019-01-23T03:40:17.390Z,54.74
2019-01-23T03:44:22.092Z,54.73
2019-01-23T03:48:26.792Z,54.59
2019-01-23T03:52:31.478Z,54.59
2019-01-23T03:56:36.174Z,54.64
2019-01-23T04:00:40.873Z,54.79
2019-01-23T04:04:45.577Z,54.81
2019-01-23T04:08:51.343Z,55.20
2019-01-23T04:12:56.039Z,55.32
2019-01-23T04:17:00.743Z,54.89
2019-01-23T04:21:05.442Z,54.68
2019-01-23T04:25:10.510Z,54.40
2019-01-23T04:29:15.210Z,54.61
2019-01-23T04:33:19.904Z,54.62
2019-01-23T04:37:24.599Z,54.54
2019-01-23T04:41:29.297Z,54.47
2019-01-23T04:45:33.994Z,54.44
2019-01-23T04:49:38.681Z,54.46
2019-01-23T04:53:45.049Z,54.66
2019-01-23T04:57:49.758Z,54.88
2019-01-23T05:01:54.456Z,54.68
2019-01-23T05:05:59.148Z,54.81
2019-01-23T05:10:05.376Z,54.85
2019-01-23T05:14:10.074Z,54.74
2019-01-23T05:18:14.772Z,54.67
2019-01-23T05:22:19.481Z,54.52
2019-01-23T05:26:24.172Z,54.42
2019-01-23T05:30:28.856Z,54.26
2019-01-23T05:34:33.564Z,54.28
2019-01-23T05:38:38.269Z,54.27
2019-01-23T05:42:42.969Z,54.26
2019-01-23T05:46:47.743Z,54.39
2019-01-23T05:50:52.427Z,54.43
2019-01-23T05:54:57.126Z,54.41
2019-01-23T05:59:01.835Z,54.32
2019-01-23T06:03:06.525Z,54.46
2019-01-23T06:07:11.221Z,54.43
2019-01-23T06:11:15.911Z,54.51
2019-01-23T06:15:20.610Z,54.58
2019-01-23T06:19:26.381Z,54.40
2019-01-23T06:23:31.080Z,54.45
2019-01-23T06:27:35.847Z,54.34
2019-01-23T06:31:40.537Z,55.86
2019-01-23T06:35:45.240Z,54.49
2019-01-23T06:39:49.952Z,54.63
2019-01-23T06:43:54.648Z,54.42
2019-01-23T06:47:59.346Z,54.60
2019-01-23T06:52:04.038Z,54.37
2019-01-23T06:56:08.739Z,56.30
2019-01-23T07:00:18.790Z,54.64
2019-01-23T07:04:23.479Z,54.88
2019-01-23T07:08:28.176Z,54.41
2019-01-23T07:12:32.868Z,54.26
2019-01-23T07:16:38.636Z,54.20
2019-01-23T07:20:43.337Z,53.72
2019-01-23T07:24:48.045Z,53.70
2019-01-23T07:28:52.749Z,53.80
2019-01-23T07:32:57.441Z,54.01
2019-01-23T07:37:02.148Z,53.73
2019-01-23T07:41:07.820Z,54.20
2019-01-23T07:45:15.817Z,53.96
2019-01-23T07:49:20.511Z,53.76
2019-01-23T07:53:25.217Z,54.07
2019-01-23T07:57:29.915Z,54.04
2019-01-23T08:01:34.611Z,54.01
2019-01-23T08:05:39.309Z,54.50
2019-01-23T08:09:43.997Z,54.85
2019-01-23T08:13:48.738Z,53.97
2019-01-23T08:17:53.407Z,53.77
2019-01-23T08:21:58.109Z,53.65
2019-01-23T08:26:02.817Z,53.83
2019-01-23T08:30:10.347Z,53.40
2019-01-23T08:34:15.055Z,53.19
2019-01-23T08:38:19.752Z,53.32
2019-01-23T08:42:24.457Z,53.11
2019-01-23T08:46:29.204Z,53.20
2019-01-23T08:50:36.700Z,53.19
2019-01-23T08:54:41.405Z,52.97
2019-01-23T08:58:46.104Z,53.02
2019-01-23T09:02:50.807Z,52.58
2019-01-23T09:06:55.498Z,52.72
2019-01-23T09:11:00.195Z,52.95
2019-01-23T09:15:08.233Z,52.88
2019-01-23T09:19:12.935Z,52.81
2019-01-23T09:23:17.641Z,52.68
2019-01-23T09:27:22.327Z,52.76
2019-01-23T09:31:33.069Z,52.57
2019-01-23T09:36:06.486Z,52.36
2019-01-23T09:40:14.440Z,52.52
2019-01-23T09:44:37.534Z,52.06
2019-01-23T09:48:54.365Z,52.05
2019-01-23T09:53:02.330Z,52.33
2019-01-23T09:57:07.013Z,52.32
2019-01-23T10:01:11.710Z,52.50
2019-01-23T10:05:16.474Z,52.70
2019-01-23T10:09:21.174Z,52.93
2019-01-23T10:13:25.869Z,52.42
2019-01-23T10:17:30.562Z,53.19
2019-01-23T10:21:35.259Z,52.95
2019-01-23T10:25:39.959Z,53.42
2019-01-23T10:29:44.652Z,52.70
2019-01-23T10:33:49.355Z,52.92
2019-01-23T10:37:54.045Z,52.70
2019-01-23T10:41:58.746Z,52.35
2019-01-23T10:46:03.440Z,52.06
2019-01-23T10:50:11.176Z,52.23
2019-01-23T10:54:15.873Z,52.20
2019-01-23T10:58:20.570Z,52.12
2019-01-23T11:02:25.273Z,52.03
2019-01-23T11:06:29.974Z,51.57
2019-01-23T11:10:34.670Z,51.88
2019-01-23T11:14:39.373Z,51.51
2019-01-23T11:18:44.063Z,51.71
2019-01-23T11:22:48.762Z,52.48
2019-01-23T11:26:53.465Z,52.80
2019-01-23T11:30:58.165Z,52.43
2019-01-23T11:35:02.869Z,52.61
2019-01-23T11:39:08.292Z,52.54
2019-01-23T11:43:12.991Z,52.01
2019-01-23T11:47:17.695Z,51.65
2019-01-23T11:51:22.392Z,51.95
2019-01-23T11:55:27.091Z,52.77
2019-01-23T11:59:31.776Z,53.26
2019-01-23T12:03:36.474Z,53.97
2019-01-23T12:07:41.176Z,53.82
2019-01-23T12:11:45.883Z,53.55
2019-01-23T12:15:50.580Z,52.98
2019-01-23T12:19:55.260Z,53.44
2019-01-23T12:23:59.965Z,53.58
2019-01-23T12:28:04.665Z,53.21
2019-01-23T12:32:09.363Z,52.93
2019-01-23T12:36:14.067Z,52.37
2019-01-23T12:40:18.750Z,52.28
2019-01-23T12:44:23.453Z,51.90
2019-01-23T12:48:28.151Z,51.85
2019-01-23T12:52:32.846Z,51.67
2019-01-23T12:56:37.536Z,51.09
2019-01-23T13:00:42.238Z,51.40
2019-01-23T13:04:46.945Z,51.98
2019-01-23T13:08:51.643Z,52.54
2019-01-23T13:12:56.411Z,53.05
2019-01-23T13:17:01.106Z,53.00
2019-01-23T13:21:05.813Z,52.73
2019-01-23T13:25:24.302Z,52.68
2019-01-23T13:29:29.958Z,52.48
2019-01-23T13:33:34.667Z,52.48
2019-01-23T13:37:39.368Z,51.98
2019-01-23T13:41:44.057Z,51.54
2019-01-23T13:45:48.751Z,51.72
2019-01-23T13:49:53.464Z,51.87
2019-01-23T13:53:58.162Z,52.49
2019-01-23T13:58:02.855Z,52.17
2019-01-23T14:02:07.548Z,51.89
2019-01-23T14:06:12.243Z,52.51
2019-01-23T14:10:17.775Z,53.21
2019-01-23T14:14:22.475Z,53.09
2019-01-23T14:18:27.175Z,53.10
2019-01-23T14:22:31.868Z,53.24
2019-01-23T14:26:36.568Z,53.38
2019-01-23T14:30:42.910Z,53.17
2019-01-23T14:34:47.606Z,53.47
2019-01-23T14:38:52.301Z,53.42
2019-01-23T14:42:56.985Z,53.60
2019-01-23T14:47:01.687Z,54.03
2019-01-23T14:51:06.385Z,54.10
2019-01-23T14:55:11.351Z,54.25
2019-01-23T14:59:16.047Z,54.34
2019-01-23T15:03:20.747Z,54.16
2019-01-23T15:07:25.458Z,53.96
2019-01-23T15:11:30.156Z,54.42
2019-01-23T15:15:34.859Z,53.92
2019-01-23T15:19:39.558Z,53.77
2019-01-23T15:23:45.120Z,53.73
2019-01-23T15:27:49.823Z,54.04
2019-01-23T15:31:54.523Z,54.66
2019-01-23T15:35:59.226Z,54.72
2019-01-23T15:40:06.461Z,54.56
2019-01-23T15:44:11.156Z,54.56
2019-01-23T15:48:16.825Z,54.91
2019-01-23T15:52:21.524Z,54.88
2019-01-23T15:56:26.222Z,54.46
2019-01-23T16:00:32.251Z,54.12
2019-01-23T16:04:36.954Z,54.21
2019-01-23T16:08:41.657Z,54.42
2019-01-23T16:12:46.357Z,54.47
2019-01-23T16:16:51.069Z,54.84
2019-01-23T16:20:55.752Z,55.06
2019-01-23T16:25:01.755Z,55.03
2019-01-23T16:29:06.820Z,55.12
2019-01-23T16:33:11.525Z,55.50
2019-01-23T16:37:16.223Z,55.14
2019-01-23T16:41:20.927Z,54.82
2019-01-23T16:45:25.623Z,54.99
2019-01-23T16:49:30.316Z,55.15
2019-01-23T16:53:35.024Z,55.15
2019-01-23T16:57:39.726Z,55.31
2019-01-23T17:01:44.459Z,55.37
2019-01-23T17:05:49.157Z,55.37
2019-01-23T17:09:53.854Z,55.38
2019-01-23T17:13:58.554Z,55.45
2019-01-23T17:18:03.252Z,55.12
2019-01-23T17:22:07.997Z,55.41
2019-01-23T17:26:12.634Z,55.74
2019-01-23T17:30:18.578Z,55.76
2019-01-23T17:34:23.279Z,55.59
2019-01-23T17:38:27.980Z,55.20
2019-01-23T17:42:32.682Z,55.66
2019-01-23T17:46:37.379Z,55.78
2019-01-23T17:50:42.078Z,55.62
2019-01-23T17:54:46.776Z,55.25
2019-01-23T17:58:51.469Z,54.92
2019-01-23T18:02:56.172Z,54.73
2019-01-23T18:07:00.866Z,54.83
2019-01-23T18:11:06.540Z,55.58
2019-01-23T18:15:14.506Z,56.75
2019-01-23T18:19:19.207Z,54.88
2019-01-23T18:23:23.935Z,54.84
2019-01-23T18:27:28.634Z,54.86
2019-01-23T18:31:33.964Z,54.38
2019-01-23T18:36:00.158Z,54.53
2019-01-23T18:40:20.164Z,54.34
2019-01-23T18:44:43.317Z,54.33
2019-01-23T18:49:24.705Z,55.01
2019-01-23T18:53:29.389Z,54.47
2019-01-23T18:57:34.098Z,54.39
2019-01-23T19:01:38.869Z,55.11
2019-01-23T19:05:43.573Z,55.13
2019-01-23T19:09:48.280Z,54.04
2019-01-23T19:13:52.969Z,53.75
2019-01-23T19:17:57.710Z,53.80
2019-01-23T19:22:02.362Z,54.52
2019-01-23T19:26:07.067Z,54.46
2019-01-23T19:30:22.472Z,54.44
2019-01-23T19:34:27.393Z,54.32
2019-01-23T19:38:32.046Z,54.79
2019-01-23T19:42:36.754Z,55.10
2019-01-23T19:46:41.452Z,55.10
2019-01-23T19:50:46.153Z,55.49
2019-01-23T19:54:50.843Z,55.83
2019-01-23T19:58:55.537Z,56.14
2019-01-23T20:03:00.235Z,56.51
2019-01-23T20:07:06.007Z,56.66
2019-01-23T20:11:11.779Z,56.77
2019-01-23T20:15:18.207Z,56.77
2019-01-23T20:19:22.909Z,56.80
2019-01-23T20:23:27.606Z,57.03
2019-01-23T20:27:32.305Z,56.94
2019-01-23T20:31:37.008Z,57.23
2019-01-23T20:35:41.775Z,57.30
2019-01-23T20:39:46.474Z,57.52
2019-01-23T20:43:51.177Z,57.44
2019-01-23T20:47:57.510Z,57.47
2019-01-23T20:52:02.212Z,57.62
2019-01-23T20:56:06.906Z,57.43
2019-01-23T21:00:17.354Z,57.22
2019-01-23T21:04:22.052Z,56.56
2019-01-23T21:08:26.762Z,56.88
2019-01-23T21:12:31.457Z,56.89
2019-01-23T21:16:36.146Z,57.13
2019-01-23T21:20:40.838Z,57.84
2019-01-23T21:24:45.538Z,57.49
2019-01-23T21:28:50.255Z,57.38
2019-01-23T21:32:54.956Z,57.32
2019-01-23T21:36:59.661Z,56.73
2019-01-23T21:41:04.365Z,57.13
2019-01-23T21:45:12.105Z,56.90
2019-01-23T21:49:16.808Z,56.87
2019-01-23T21:53:21.511Z,56.70
2019-01-23T21:57:26.213Z,56.66
2019-01-23T22:01:30.915Z,56.81
2019-01-23T22:05:35.615Z,56.82
2019-01-23T22:09:40.308Z,57.19
2019-01-23T22:13:45.005Z,57.11
2019-01-23T22:17:49.705Z,57.13
2019-01-23T22:21:54.390Z,57.29
2019-01-23T22:25:59.088Z,57.25
2019-01-23T22:30:06.082Z,57.29
2019-01-23T22:34:10.784Z,57.06
2019-01-23T22:38:15.472Z,56.92
2019-01-23T22:42:20.157Z,56.97
2019-01-23T22:46:24.856Z,57.07
2019-01-23T22:50:29.554Z,57.10
2019-01-23T22:54:34.252Z,56.69
2019-01-23T22:58:38.945Z,56.79
2019-01-23T23:02:43.647Z,57.13
2019-01-23T23:06:48.347Z,57.43
2019-01-23T23:10:53.046Z,57.26
2019-01-23T23:14:57.742Z,57.46
2019-01-23T23:19:02.435Z,57.58
2019-01-23T23:23:07.133Z,57.59
2019-01-23T23:27:11.839Z,57.90
2019-01-23T23:31:16.605Z,58.05
2019-01-23T23:35:21.307Z,58.14
2019-01-23T23:39:25.990Z,58.18
2019-01-23T23:43:30.693Z,58.22
2019-01-23T23:47:35.390Z,58.42
2019-01-23T23:51:40.081Z,58.35
2019-01-23T23:55:44.783Z,58.35
2019-01-23T23:59:49.474Z,58.32
